createdAt,value
2022-11-28T00:01:28.932Z,36.83
2022-11-28T00:03:56.689Z,29.38
2022-11-28T00:06:24.734Z,35.35
2022-11-28T00:08:52.694Z,26.25
2022-11-28T00:11:20.456Z,29.08
2022-11-28T00:13:47.980Z,30.45
2022-11-28T00:16:21.526Z,26.85
2022-11-28T00:18:54.424Z,33.20
2022-11-28T00:21:23.292Z,34.40
2022-11-28T00:23:51.260Z,24.60
2022-11-28T00:26:22.641Z,26.65
2022-11-28T00:28:50.900Z,25.45
2022-11-28T00:31:21.820Z,32.47
2022-11-28T00:33:49.725Z,31.85
2022-11-28T00:36:17.593Z,25.67
2022-11-28T00:38:45.232Z,25.58
2022-11-28T00:41:18.243Z,27.15
2022-11-28T00:43:47.511Z,22.92
2022-11-28T00:46:15.743Z,29.98
2022-11-28T00:48:43.642Z,23.10
2022-11-28T00:51:15.574Z,24.95
2022-11-28T00:53:45.319Z,30.83
2022-11-28T00:56:14.825Z,23.48
2022-11-28T00:58:43.010Z,14.98
2022-11-28T01:01:22.013Z,34.15
2022-11-28T01:03:51.688Z,20.92
2022-11-28T01:06:29.457Z,16.80
2022-11-28T01:08:59.958Z,24.05
2022-11-28T01:11:28.345Z,28.10
2022-11-28T01:13:58.222Z,26.67
2022-11-28T01:16:26.123Z,14.57
2022-11-28T01:18:53.888Z,32.03
2022-11-28T01:21:21.595Z,20.02
2022-11-28T01:23:49.212Z,17.38
2022-11-28T01:26:22.326Z,27.45
2022-11-28T01:28:49.985Z,17.63
2022-11-28T01:31:20.983Z,21.02
2022-11-28T01:33:49.475Z,25.75
2022-11-28T01:36:17.961Z,15.20
2022-11-28T01:38:45.926Z,28.02
2022-11-28T01:41:15.230Z,19.05
2022-11-28T01:44:06.086Z,19.83
2022-11-28T01:46:34.619Z,25.30
2022-11-28T01:49:26.286Z,19.85
2022-11-28T01:52:01.116Z,19.98
2022-11-28T01:54:30.516Z,20.48
2022-11-28T01:57:08.206Z,15.32
2022-11-28T01:59:39.069Z,14.88
2022-11-28T02:02:13.509Z,17.63
2022-11-28T02:04:42.533Z,21.70
2022-11-28T02:07:10.705Z,19.55
2022-11-28T02:09:38.168Z,15.25
2022-11-28T02:12:05.609Z,14.38
2022-11-28T02:14:51.634Z,15.65
2022-11-28T02:17:25.046Z,19.85
2022-11-28T02:20:21.900Z,26.00
2022-11-28T02:25:56.751Z,14.57
2022-11-28T02:28:24.160Z,20.83
2022-11-28T02:31:03.512Z,17.80
2022-11-28T02:33:43.165Z,21.63
2022-11-28T02:36:20.792Z,16.80
2022-11-28T02:38:59.940Z,25.13
2022-11-28T02:41:54.282Z,18.58
2022-11-28T02:44:51.191Z,13.82
2022-11-28T02:50:05.299Z,20.98
2022-11-28T02:52:53.103Z,23.48
2022-11-28T02:55:21.468Z,20.48
2022-11-28T02:57:53.287Z,14.70
2022-11-28T03:00:25.253Z,14.80
2022-11-28T03:03:34.507Z,17.52
2022-11-28T03:06:43.628Z,18.27
2022-11-28T03:09:35.328Z,20.38
2022-11-28T03:12:08.839Z,13.93
2022-11-28T03:15:00.128Z,11.93
2022-11-28T03:17:37.817Z,12.60
2022-11-28T03:20:13.447Z,11.73
2022-11-28T03:22:49.761Z,13.15
2022-11-28T03:25:20.051Z,16.90
2022-11-28T03:28:12.805Z,12.52
2022-11-28T03:30:50.812Z,17.40
2022-11-28T03:33:21.325Z,16.35
2022-11-28T03:36:22.088Z,14.32
2022-11-28T03:38:54.629Z,16.98
2022-11-28T03:41:28.241Z,12.95
2022-11-28T03:43:58.345Z,16.25
2022-11-28T03:46:35.164Z,16.27
2022-11-28T03:49:03.993Z,18.25
2022-11-28T03:51:38.194Z,17.13
2022-11-28T03:54:10.908Z,16.30
2022-11-28T03:57:00.755Z,9.00
2022-11-28T03:59:39.959Z,14.02
2022-11-28T04:02:33.827Z,17.90
2022-11-28T04:05:11.944Z,13.50
2022-11-28T04:08:05.744Z,17.35
2022-11-28T04:10:56.536Z,10.43
2022-11-28T04:13:25.545Z,12.68
2022-11-28T04:16:31.920Z,16.52
2022-11-28T04:19:02.664Z,24.90
2022-11-28T04:21:43.455Z,17.88
2022-11-28T04:24:19.714Z,15.68
2022-11-28T04:26:52.462Z,16.63
2022-11-28T04:29:23.770Z,15.18
2022-11-28T04:31:56.787Z,11.95
2022-11-28T04:34:26.471Z,11.15
2022-11-28T04:36:55.338Z,12.45
2022-11-28T04:39:25.410Z,9.27
2022-11-28T04:41:57.569Z,9.55
2022-11-28T04:44:39.889Z,10.68
2022-11-28T04:47:07.992Z,6.70
2022-11-28T04:49:35.456Z,9.40
2022-11-28T04:52:20.984Z,11.02
2022-11-28T04:55:13.173Z,11.53
2022-11-28T04:57:51.693Z,13.10
2022-11-28T05:00:22.829Z,5.15
2022-11-28T05:02:53.363Z,6.57
2022-11-28T05:05:25.179Z,9.25
2022-11-28T05:07:53.532Z,9.95
2022-11-28T05:10:21.158Z,16.67
2022-11-28T05:12:48.616Z,16.02
2022-11-28T05:15:19.400Z,10.93
2022-11-28T05:17:47.265Z,9.00
2022-11-28T05:20:14.884Z,10.27
2022-11-28T05:22:42.441Z,6.95
2022-11-28T05:25:10.012Z,15.88
2022-11-28T05:27:37.621Z,11.13
2022-11-28T05:30:06.545Z,6.03
2022-11-28T05:32:34.117Z,7.65
2022-11-28T05:35:01.881Z,6.68
2022-11-28T05:37:29.415Z,6.88
2022-11-28T05:39:56.932Z,11.73
2022-11-28T05:42:25.982Z,9.80
2022-11-28T05:44:53.380Z,7.97
2022-11-28T05:47:20.838Z,10.02
2022-11-28T05:49:48.351Z,6.95
2022-11-28T05:52:15.847Z,12.40
2022-11-28T05:54:43.289Z,4.85
2022-11-28T05:57:10.723Z,11.38
2022-11-28T05:59:38.250Z,7.45
2022-11-28T06:02:05.787Z,9.13
2022-11-28T06:04:33.614Z,5.82
2022-11-28T06:07:01.205Z,6.70
2022-11-28T06:09:28.662Z,13.07
2022-11-28T06:11:56.123Z,5.47
2022-11-28T06:14:23.575Z,7.43
2022-11-28T06:16:51.051Z,8.63
2022-11-28T06:19:18.585Z,4.57
2022-11-28T06:21:46.202Z,6.78
2022-11-28T06:24:13.637Z,13.98
2022-11-28T06:26:41.085Z,6.50
2022-11-28T06:29:08.555Z,8.75
2022-11-28T06:31:36.145Z,7.40
2022-11-28T06:34:03.657Z,7.60
2022-11-28T06:36:31.163Z,7.95
2022-11-28T06:38:58.624Z,8.88
2022-11-28T06:41:26.095Z,7.93
2022-11-28T06:43:53.519Z,8.02
2022-11-28T06:46:22.678Z,6.70
2022-11-28T06:48:51.792Z,7.30
2022-11-28T06:51:20.455Z,9.25
2022-11-28T06:53:49.010Z,9.45
2022-11-28T06:56:19.009Z,9.02
2022-11-28T06:58:47.437Z,4.93
2022-11-28T07:01:17.683Z,5.82
2022-11-28T07:03:45.439Z,12.50
2022-11-28T07:06:14.178Z,9.82
2022-11-28T07:08:42.296Z,10.00
2022-11-28T07:11:12.709Z,10.20
2022-11-28T07:13:41.253Z,14.63
2022-11-28T07:16:13.171Z,17.15
2022-11-28T07:18:40.640Z,16.75
2022-11-28T07:21:08.446Z,12.70
2022-11-28T07:23:36.036Z,11.75
2022-11-28T07:26:05.008Z,11.23
2022-11-28T07:28:34.703Z,7.38
2022-11-28T07:31:08.472Z,11.55
2022-11-28T07:33:36.303Z,7.40
2022-11-28T07:36:10.708Z,7.00
2022-11-28T07:38:38.311Z,8.32
2022-11-28T07:41:11.127Z,10.45
2022-11-28T07:43:39.721Z,9.02
2022-11-28T07:46:10.238Z,5.07
2022-11-28T07:48:38.132Z,8.13
2022-11-28T07:51:08.623Z,10.10
2022-11-28T07:53:36.537Z,8.13
2022-11-28T07:56:06.127Z,13.57
2022-11-28T07:58:35.534Z,8.70
2022-11-28T08:01:30.962Z,20.23
2022-11-28T08:03:58.830Z,8.98
2022-11-28T08:06:29.134Z,9.15
2022-11-28T08:09:00.254Z,8.27
2022-11-28T08:11:30.132Z,4.63
2022-11-28T08:13:59.312Z,7.40
2022-11-28T08:16:29.187Z,13.65
2022-11-28T08:18:57.140Z,6.80
2022-11-28T08:21:30.149Z,8.40
2022-11-28T08:24:01.284Z,5.18
2022-11-28T08:26:31.115Z,7.05
2022-11-28T08:28:59.956Z,7.22
2022-11-28T08:31:30.332Z,10.38
2022-11-28T08:34:00.098Z,9.00
2022-11-28T08:36:29.303Z,12.18
2022-11-28T08:41:46.766Z,14.48
2022-11-28T08:44:14.197Z,9.57
2022-11-28T08:46:41.881Z,7.97
2022-11-28T08:49:09.288Z,7.13
2022-11-28T08:51:37.163Z,9.25
2022-11-28T08:54:04.949Z,6.05
2022-11-28T08:56:32.496Z,6.05
2022-11-28T08:59:00.552Z,6.53
2022-11-28T09:01:28.109Z,6.75
2022-11-28T09:03:56.291Z,12.32
2022-11-28T09:06:24.324Z,6.97
2022-11-28T09:08:52.636Z,8.80
2022-11-28T09:11:22.293Z,7.25
2022-11-28T09:13:50.776Z,6.20
2022-11-28T09:16:18.820Z,5.80
2022-11-28T09:18:46.357Z,10.18
2022-11-28T09:21:15.554Z,9.23
2022-11-28T09:23:44.932Z,8.77
2022-11-28T09:26:18.666Z,8.73
2022-11-28T09:28:46.856Z,9.90
2022-11-28T09:31:15.907Z,9.40
2022-11-28T09:33:43.836Z,7.90
2022-11-28T09:36:18.311Z,13.10
2022-11-28T09:38:46.667Z,7.63
2022-11-28T09:41:32.140Z,7.85
2022-11-28T09:44:12.665Z,5.87
2022-11-28T09:46:41.650Z,6.75
2022-11-28T09:49:40.246Z,9.68
2022-11-28T09:52:28.327Z,6.90
2022-11-28T09:55:17.294Z,5.25
2022-11-28T09:57:50.286Z,8.15
2022-11-28T10:00:22.645Z,10.70
2022-11-28T10:03:19.249Z,6.80
2022-11-28T10:06:21.963Z,6.00
2022-11-28T10:09:10.279Z,3.47
2022-11-28T10:11:52.533Z,5.07
2022-11-28T10:15:01.388Z,7.90
2022-11-28T10:17:34.993Z,5.90
2022-11-28T10:20:05.179Z,7.53
2022-11-28T10:22:37.962Z,6.88
2022-11-28T10:25:13.491Z,4.80
2022-11-28T10:27:41.413Z,7.45
2022-11-28T10:30:21.519Z,7.22
2022-11-28T10:32:57.749Z,6.38
2022-11-28T10:35:57.824Z,4.85
2022-11-28T10:38:27.928Z,4.22
2022-11-28T10:41:08.399Z,3.55
2022-11-28T10:43:35.895Z,5.10
2022-11-28T10:46:22.091Z,3.80
2022-11-28T10:49:10.074Z,3.75
2022-11-28T10:52:11.880Z,3.55
2022-11-28T10:55:02.657Z,4.47
2022-11-28T10:57:42.118Z,1.73
2022-11-28T11:00:19.031Z,5.55
2022-11-28T11:02:52.192Z,3.35
2022-11-28T11:05:28.306Z,5.60
2022-11-28T11:08:19.221Z,5.80
2022-11-28T11:10:52.864Z,5.10
2022-11-28T11:13:26.020Z,5.93
2022-11-28T11:16:06.162Z,10.88
2022-11-28T11:18:51.121Z,4.82
2022-11-28T11:21:24.324Z,7.28
2022-11-28T11:24:19.411Z,4.88
2022-11-28T11:26:49.280Z,6.82
2022-11-28T11:29:35.609Z,4.78
2022-11-28T11:32:06.381Z,5.32
2022-11-28T11:34:44.220Z,7.15
2022-11-28T11:37:35.900Z,5.88
2022-11-28T11:40:21.878Z,4.90
2022-11-28T11:43:02.087Z,8.52
2022-11-28T11:45:33.351Z,9.65
2022-11-28T11:48:02.290Z,6.88
2022-11-28T11:50:31.621Z,9.52
2022-11-28T11:53:07.022Z,7.03
2022-11-28T11:55:48.109Z,6.43
2022-11-28T11:58:21.903Z,8.05
2022-11-28T12:00:51.969Z,7.72
2022-11-28T12:03:36.303Z,9.57
2022-11-28T12:06:25.542Z,7.93
2022-11-28T12:09:00.109Z,8.70
2022-11-28T12:11:36.577Z,7.55
2022-11-28T12:14:27.037Z,5.97
2022-11-28T12:17:47.795Z,10.38
2022-11-28T12:20:26.585Z,7.20
2022-11-28T12:23:05.489Z,12.80
2022-11-28T12:25:35.956Z,9.60
2022-11-28T12:28:29.791Z,8.60
2022-11-28T12:31:08.492Z,6.05
2022-11-28T12:33:44.596Z,14.88
2022-11-28T12:39:16.244Z,5.95
2022-11-28T12:41:46.701Z,9.40
2022-11-28T12:44:42.799Z,5.90
2022-11-28T12:47:44.038Z,12.67
2022-11-28T12:50:14.583Z,7.57
2022-11-28T12:52:53.158Z,7.25
2022-11-28T12:55:45.126Z,7.72
2022-11-28T12:58:27.989Z,9.05
2022-11-28T13:00:58.606Z,6.03
2022-11-28T13:03:32.169Z,7.80
2022-11-28T13:06:04.548Z,6.55
2022-11-28T13:08:48.918Z,5.40
2022-11-28T13:11:41.496Z,6.22
2022-11-28T13:14:15.526Z,4.80
2022-11-28T13:16:50.667Z,4.82
2022-11-28T13:19:32.997Z,5.45
2022-11-28T13:22:00.463Z,5.85
2022-11-28T13:24:53.637Z,6.95
2022-11-28T13:27:36.395Z,5.63
2022-11-28T13:30:27.742Z,5.55
2022-11-28T13:33:05.963Z,5.63
2022-11-28T13:35:34.403Z,4.72
2022-11-28T13:38:44.112Z,3.22
2022-11-28T13:42:28.849Z,2.28
2022-11-28T13:45:07.231Z,2.40
2022-11-28T13:47:37.233Z,5.38
2022-11-28T13:50:25.666Z,6.18
2022-11-28T13:53:06.271Z,5.32
2022-11-28T13:55:36.503Z,10.27
2022-11-28T13:58:23.106Z,10.57
2022-11-28T14:01:07.579Z,10.43
2022-11-28T14:03:50.200Z,12.43
2022-11-28T14:06:22.196Z,8.60
2022-11-28T14:09:15.993Z,7.20
2022-11-28T14:12:01.928Z,4.35
2022-11-28T14:14:48.113Z,2.83
2022-11-28T14:17:41.058Z,5.25
2022-11-28T14:20:17.472Z,11.45
2022-11-28T14:23:04.278Z,8.45
2022-11-28T14:28:36.824Z,9.68
2022-11-28T14:31:32.481Z,4.35
2022-11-28T14:34:39.172Z,7.43
2022-11-28T14:39:56.523Z,9.20
2022-11-28T14:45:33.253Z,10.00
2022-11-28T14:48:23.954Z,6.00
2022-11-28T14:50:59.397Z,5.68
2022-11-28T14:53:44.788Z,6.82
2022-11-28T14:56:15.969Z,7.45
2022-11-28T14:58:51.526Z,8.02
2022-11-28T15:01:35.381Z,6.55
2022-11-28T15:04:41.079Z,6.75
2022-11-28T15:07:36.505Z,3.72
2022-11-28T15:10:30.312Z,6.10
2022-11-28T15:13:03.872Z,6.47
2022-11-28T15:15:32.597Z,7.82
2022-11-28T15:18:03.229Z,5.75
2022-11-28T15:20:42.580Z,5.25
2022-11-28T15:23:33.089Z,9.75
2022-11-28T15:26:02.259Z,13.00
2022-11-28T15:28:33.955Z,9.18
2022-11-28T15:31:06.796Z,6.03
2022-11-28T15:33:34.667Z,8.68
2022-11-28T15:36:20.861Z,4.97
2022-11-28T15:38:48.388Z,7.95
2022-11-28T15:41:22.188Z,5.68
2022-11-28T15:43:49.993Z,5.75
2022-11-28T15:46:37.192Z,6.38
2022-11-28T15:49:07.203Z,4.95
2022-11-28T15:51:35.738Z,9.02
2022-11-28T15:54:13.354Z,5.43
2022-11-28T15:56:59.718Z,7.30
2022-11-28T15:59:29.009Z,5.78
2022-11-28T16:02:04.324Z,11.23
2022-11-28T16:04:32.078Z,6.35
2022-11-28T16:07:02.055Z,9.60
2022-11-28T16:09:35.056Z,7.72
2022-11-28T16:12:04.840Z,10.55
2022-11-28T16:14:35.870Z,15.98
2022-11-28T16:17:13.410Z,10.38
2022-11-28T16:19:43.597Z,11.82
2022-11-28T16:22:18.377Z,11.57
2022-11-28T16:24:47.598Z,8.25
2022-11-28T16:27:39.143Z,7.63
2022-11-28T16:30:25.492Z,11.65
2022-11-28T16:35:41.268Z,12.52
2022-11-28T16:38:19.109Z,11.77
2022-11-28T16:40:47.224Z,11.88
2022-11-28T16:43:35.881Z,12.07
2022-11-28T16:46:06.934Z,12.88
2022-11-28T16:48:37.168Z,10.65
2022-11-28T16:51:34.688Z,12.00
2022-11-28T16:54:31.916Z,13.85
2022-11-28T16:57:11.213Z,11.18
2022-11-28T16:59:38.810Z,9.70
2022-11-28T17:02:14.023Z,11.13
2022-11-28T17:04:41.564Z,5.82
2022-11-28T17:07:13.807Z,4.90
2022-11-28T17:09:42.675Z,7.60
2022-11-28T17:12:34.613Z,8.25
2022-11-28T17:15:02.114Z,9.27
2022-11-28T17:17:30.762Z,8.60
2022-11-28T17:19:58.228Z,8.60
2022-11-28T17:22:40.277Z,9.77
2022-11-28T17:25:16.035Z,8.43
2022-11-28T17:27:44.602Z,7.78
2022-11-28T17:30:16.653Z,7.75
2022-11-28T17:32:44.326Z,15.27
2022-11-28T17:35:17.068Z,10.82
2022-11-28T17:37:44.796Z,9.45
2022-11-28T17:40:31.227Z,12.52
2022-11-28T17:42:59.434Z,11.13
2022-11-28T17:45:30.674Z,9.60
2022-11-28T17:47:59.182Z,13.35
2022-11-28T17:50:28.029Z,8.23
2022-11-28T17:52:55.525Z,17.95
2022-11-28T17:55:23.109Z,11.93
2022-11-28T17:57:50.852Z,13.35
2022-11-28T18:00:18.857Z,25.00
2022-11-28T18:02:46.530Z,12.10
2022-11-28T18:05:14.634Z,15.30
2022-11-28T18:07:42.359Z,15.85
2022-11-28T18:10:12.454Z,14.82
2022-11-28T18:12:39.949Z,20.55
2022-11-28T18:15:10.518Z,19.88
2022-11-28T18:17:38.916Z,17.30
2022-11-28T18:20:07.180Z,17.98
2022-11-28T18:22:34.790Z,23.35
2022-11-28T18:25:02.868Z,15.73
2022-11-28T18:27:30.716Z,19.23
2022-11-28T18:29:58.178Z,20.30
2022-11-28T18:32:25.735Z,19.40
2022-11-28T18:34:53.153Z,17.58
2022-11-28T18:37:20.647Z,16.27
2022-11-28T18:39:48.245Z,18.55
2022-11-28T18:42:16.871Z,24.92
2022-11-28T18:44:44.334Z,18.95
2022-11-28T18:47:11.877Z,18.88
2022-11-28T18:49:39.266Z,17.02
2022-11-28T18:52:06.923Z,17.65
2022-11-28T18:54:34.559Z,14.63
2022-11-28T18:57:07.270Z,14.48
2022-11-28T18:59:34.823Z,17.55
2022-11-28T19:02:02.920Z,23.58
2022-11-28T19:04:31.262Z,15.23
2022-11-28T19:07:00.486Z,15.20
2022-11-28T19:09:28.024Z,16.00
2022-11-28T19:11:55.879Z,16.50
2022-11-28T19:14:24.069Z,14.18
2022-11-28T19:16:54.093Z,19.33
2022-11-28T19:19:22.567Z,17.08
2022-11-28T19:21:50.502Z,17.77
2022-11-28T19:24:18.924Z,15.82
2022-11-28T19:26:46.418Z,15.15
2022-11-28T19:29:14.162Z,18.13
2022-11-28T19:31:42.087Z,16.98
2022-11-28T19:34:18.580Z,14.57
2022-11-28T19:36:51.081Z,16.60
2022-11-28T19:39:24.805Z,15.27
2022-11-28T19:41:53.880Z,15.40
2022-11-28T19:44:24.150Z,13.20
2022-11-28T19:46:53.153Z,14.60
2022-11-28T19:49:23.809Z,17.35
2022-11-28T19:51:52.267Z,16.23
2022-11-28T19:54:20.320Z,14.07
2022-11-28T19:56:49.295Z,16.92
2022-11-28T19:59:17.403Z,13.65
2022-11-28T20:01:45.520Z,15.60
2022-11-28T20:04:14.090Z,14.05
2022-11-28T20:06:41.684Z,18.15
2022-11-28T20:09:12.993Z,13.93
2022-11-28T20:11:43.915Z,19.55
2022-11-28T20:14:14.673Z,13.85
2022-11-28T20:16:42.508Z,14.90
2022-11-28T20:19:12.022Z,14.00
2022-11-28T20:21:40.293Z,21.38
2022-11-28T20:24:10.354Z,23.85
2022-11-28T20:26:41.048Z,20.30
2022-11-28T20:29:12.961Z,17.77
2022-11-28T20:31:46.691Z,16.33
2022-11-28T20:34:17.883Z,14.45
2022-11-28T20:36:46.227Z,20.48
2022-11-28T20:39:13.842Z,21.33
2022-11-28T20:41:41.451Z,17.45
2022-11-28T20:44:10.268Z,17.00
2022-11-28T20:46:39.860Z,15.35
2022-11-28T20:49:07.620Z,15.52
2022-11-28T20:51:36.097Z,16.67
2022-11-28T20:54:05.765Z,17.58
2022-11-28T20:56:57.831Z,12.70
2022-11-28T20:59:24.971Z,10.98
2022-11-28T21:01:52.577Z,15.00
2022-11-28T21:04:20.312Z,18.05
2022-11-28T21:06:49.257Z,11.93
2022-11-28T21:09:20.737Z,11.43
2022-11-28T21:11:58.653Z,12.32
2022-11-28T21:14:28.830Z,14.82
2022-11-28T21:16:57.375Z,14.32
2022-11-28T21:19:25.033Z,11.77
2022-11-28T21:21:52.638Z,11.20
2022-11-28T21:24:20.380Z,12.35
2022-11-28T21:26:52.850Z,11.52
2022-11-28T21:29:22.684Z,12.80
2022-11-28T21:31:50.373Z,9.27
2022-11-28T21:34:19.455Z,15.18
2022-11-28T21:36:47.215Z,20.45
2022-11-28T21:39:17.445Z,13.60
2022-11-28T21:41:45.278Z,11.77
2022-11-28T21:44:12.696Z,13.75
2022-11-28T21:46:40.276Z,14.70
2022-11-28T21:49:07.854Z,14.93
2022-11-28T21:51:39.580Z,9.00
2022-11-28T21:54:07.080Z,9.55
2022-11-28T21:56:34.762Z,10.50
2022-11-28T21:59:02.366Z,10.55
2022-11-28T22:01:30.006Z,10.02
2022-11-28T22:04:02.944Z,8.88
2022-11-28T22:06:31.956Z,10.70
2022-11-28T22:09:08.298Z,16.23
2022-11-28T22:11:36.895Z,9.63
2022-11-28T22:14:04.719Z,10.38
2022-11-28T22:16:32.985Z,9.18
2022-11-28T22:19:00.763Z,11.05
2022-11-28T22:21:52.031Z,9.90
2022-11-28T22:24:16.190Z,8.02
2022-11-28T22:26:44.540Z,7.22
2022-11-28T22:29:13.850Z,6.78
2022-11-28T22:31:41.799Z,8.02
2022-11-28T22:34:09.978Z,7.32
2022-11-28T22:36:38.207Z,28.50
2022-11-28T22:39:06.320Z,8.48
2022-11-28T22:41:34.257Z,10.63
2022-11-28T22:44:04.026Z,8.45
2022-11-28T22:46:32.404Z,10.25
2022-11-28T22:49:01.297Z,11.75
2022-11-28T22:51:29.610Z,8.77
2022-11-28T22:53:59.522Z,7.68
2022-11-28T22:56:29.690Z,6.32
2022-11-28T22:58:59.239Z,8.88
2022-11-28T23:01:30.458Z,7.55
2022-11-28T23:03:58.724Z,6.22
2022-11-28T23:06:29.360Z,6.50
2022-11-28T23:08:58.658Z,6.32
2022-11-28T23:11:30.339Z,8.20
2022-11-28T23:13:59.511Z,8.60
2022-11-28T23:16:33.930Z,10.68
2022-11-28T23:19:07.799Z,11.10
2022-11-28T23:21:38.418Z,10.43
2022-11-28T23:24:07.567Z,10.30
2022-11-28T23:26:35.384Z,6.18
2022-11-28T23:29:05.150Z,5.53
2022-11-28T23:31:37.448Z,6.97
2022-11-28T23:34:06.407Z,8.60
2022-11-28T23:36:41.742Z,7.28
2022-11-28T23:39:13.821Z,4.75
2022-11-28T23:41:41.840Z,7.22
2022-11-28T23:44:13.310Z,8.85
2022-11-28T23:46:41.457Z,7.68
2022-11-28T23:49:09.155Z,8.10
2022-11-28T23:51:37.324Z,5.15
2022-11-28T23:54:04.888Z,5.65
2022-11-28T23:56:34.885Z,6.82
2022-11-28T23:59:04.444Z,6.65
